createdAt,value
2018-10-03T00:00:10.329Z,5.10
2018-10-03T00:02:39.213Z,5.40
2018-10-03T00:05:07.825Z,5.73
2018-10-03T00:07:36.434Z,5.50
2018-10-03T00:10:05.584Z,6.87
2018-10-03T00:12:34.193Z,5.07
2018-10-03T00:15:02.895Z,6.00
2018-10-03T00:17:31.618Z,5.70
2018-10-03T00:20:00.265Z,5.70
2018-10-03T00:22:28.869Z,5.80
2018-10-03T00:24:57.460Z,5.27
2018-10-03T00:27:26.201Z,5.40
2018-10-03T00:29:54.767Z,6.10
2018-10-03T00:32:23.389Z,6.03
2018-10-03T00:34:52.032Z,6.60
2018-10-03T00:37:20.971Z,7.53
2018-10-03T00:39:49.694Z,7.40
2018-10-03T00:42:18.324Z,7.60
2018-10-03T00:44:46.878Z,8.57
2018-10-03T00:47:15.514Z,8.60
2018-10-03T00:49:44.050Z,8.97
2018-10-03T00:52:12.736Z,10.00
2018-10-03T00:54:41.340Z,11.57
2018-10-03T00:57:10.236Z,10.73
2018-10-03T00:59:39.020Z,10.07
2018-10-03T01:02:07.887Z,9.70
2018-10-03T01:04:36.579Z,7.70
2018-10-03T01:07:05.110Z,7.87
2018-10-03T01:09:33.653Z,5.97
2018-10-03T01:12:02.324Z,5.90
2018-10-03T01:14:31.487Z,6.73
2018-10-03T01:17:00.022Z,6.73
2018-10-03T01:19:28.656Z,6.27
2018-10-03T01:21:57.424Z,6.43
2018-10-03T01:24:25.926Z,7.27
2018-10-03T01:26:54.804Z,6.80
2018-10-03T01:29:23.457Z,7.00
2018-10-03T01:31:52.040Z,7.20
2018-10-03T01:34:20.547Z,7.50
2018-10-03T01:36:49.142Z,7.63
2018-10-03T01:39:17.699Z,7.10
2018-10-03T01:41:46.293Z,5.77
2018-10-03T01:44:14.825Z,6.70
2018-10-03T01:46:43.454Z,7.10
2018-10-03T01:49:12.014Z,6.60
2018-10-03T01:51:40.655Z,5.93
2018-10-03T01:54:09.217Z,7.83
2018-10-03T01:56:37.745Z,6.73
2018-10-03T01:59:06.316Z,7.43
2018-10-03T02:01:34.852Z,6.53
2018-10-03T02:04:03.400Z,6.73
2018-10-03T02:06:31.949Z,7.83
2018-10-03T02:09:00.515Z,6.77
2018-10-03T02:11:29.089Z,7.20
2018-10-03T02:13:57.681Z,5.90
2018-10-03T02:16:26.268Z,6.50
2018-10-03T02:18:54.831Z,7.43
2018-10-03T02:21:23.378Z,7.07
2018-10-03T02:23:51.980Z,6.47
2018-10-03T02:26:21.248Z,6.83
2018-10-03T02:28:49.796Z,6.90
2018-10-03T02:31:18.371Z,8.00
2018-10-03T02:33:46.939Z,6.90
2018-10-03T02:36:15.517Z,6.87
2018-10-03T02:38:44.081Z,9.40
2018-10-03T02:41:12.706Z,7.70
2018-10-03T02:43:41.224Z,6.30
2018-10-03T02:46:09.831Z,6.93
2018-10-03T02:48:38.355Z,7.67
2018-10-03T02:51:06.915Z,9.17
2018-10-03T02:53:35.596Z,9.17
2018-10-03T02:56:04.118Z,8.43
2018-10-03T02:58:32.670Z,9.50
2018-10-03T03:01:01.295Z,8.27
2018-10-03T03:03:29.820Z,7.47
2018-10-03T03:05:58.461Z,8.00
2018-10-03T03:08:27.071Z,7.77
2018-10-03T03:10:55.555Z,7.17
2018-10-03T03:13:24.142Z,7.17
2018-10-03T03:15:53.435Z,6.70
2018-10-03T03:18:22.052Z,6.40
2018-10-03T03:20:50.663Z,7.20
2018-10-03T03:23:19.277Z,7.30
2018-10-03T03:25:47.840Z,7.17
2018-10-03T03:28:16.404Z,7.00
2018-10-03T03:30:45.035Z,6.60
2018-10-03T03:33:13.520Z,6.73
2018-10-03T03:35:42.188Z,8.13
2018-10-03T03:38:10.697Z,7.07
2018-10-03T03:40:39.270Z,7.03
2018-10-03T03:43:07.777Z,6.90
2018-10-03T03:45:36.428Z,5.90
2018-10-03T03:48:05.036Z,7.47
2018-10-03T03:50:33.694Z,5.80
2018-10-03T03:53:02.243Z,6.73
2018-10-03T03:55:30.755Z,7.10
2018-10-03T03:57:59.277Z,6.30
2018-10-03T04:00:27.785Z,6.13
2018-10-03T04:02:56.489Z,6.70
2018-10-03T04:05:25.157Z,7.73
2018-10-03T04:07:54.016Z,8.03
2018-10-03T04:10:22.560Z,7.60
2018-10-03T04:12:51.462Z,7.00
2018-10-03T04:15:20.085Z,7.73
2018-10-03T04:17:48.622Z,8.10
2018-10-03T04:20:17.209Z,8.70
2018-10-03T04:22:45.766Z,8.97
2018-10-03T04:25:14.332Z,9.00
2018-10-03T04:27:42.916Z,8.73
2018-10-03T04:30:11.456Z,9.70
2018-10-03T04:32:40.137Z,9.83
2018-10-03T04:35:08.768Z,10.90
2018-10-03T04:37:37.327Z,10.23
2018-10-03T04:40:05.897Z,8.97
2018-10-03T04:42:34.458Z,8.87
2018-10-03T04:45:03.688Z,10.40
2018-10-03T04:47:32.364Z,9.57
2018-10-03T04:50:01.011Z,10.50
2018-10-03T04:52:29.607Z,9.40
2018-10-03T04:54:58.154Z,10.10
2018-10-03T04:57:26.711Z,10.77
2018-10-03T04:59:55.234Z,9.23
2018-10-03T05:02:23.788Z,10.90
2018-10-03T05:04:52.296Z,10.60
2018-10-03T05:07:20.844Z,9.90
2018-10-03T05:09:49.399Z,8.23
2018-10-03T05:12:18.031Z,10.00
2018-10-03T05:14:46.569Z,8.97
2018-10-03T05:17:15.137Z,10.43
2018-10-03T05:19:43.682Z,9.20
2018-10-03T05:22:12.368Z,10.43
2018-10-03T05:24:40.921Z,10.17
2018-10-03T05:27:09.483Z,9.97
2018-10-03T05:29:38.065Z,10.43
2018-10-03T05:32:06.697Z,11.50
2018-10-03T05:34:35.257Z,10.00
2018-10-03T05:37:03.824Z,10.57
2018-10-03T05:39:32.494Z,10.77
2018-10-03T05:42:01.126Z,10.13
2018-10-03T05:44:29.756Z,10.63
2018-10-03T05:46:58.402Z,9.67
2018-10-03T05:49:27.040Z,9.60
2018-10-03T05:51:55.774Z,10.70
2018-10-03T05:54:24.270Z,10.27
2018-10-03T05:56:52.936Z,10.23
2018-10-03T05:59:21.481Z,10.90
2018-10-03T06:01:50.105Z,12.10
2018-10-03T06:04:18.636Z,9.50
2018-10-03T06:06:47.161Z,10.40
2018-10-03T06:09:15.740Z,12.10
2018-10-03T06:11:44.299Z,8.77
2018-10-03T06:14:13.041Z,9.13
2018-10-03T06:16:41.574Z,9.67
2018-10-03T06:19:10.236Z,9.00
2018-10-03T06:21:38.893Z,11.80
2018-10-03T06:24:07.749Z,10.50
2018-10-03T06:26:36.347Z,9.83
2018-10-03T06:29:04.939Z,9.77
2018-10-03T06:31:33.605Z,11.00
2018-10-03T06:34:02.216Z,10.63
2018-10-03T06:36:30.772Z,10.63
2018-10-03T06:38:59.350Z,9.90
2018-10-03T06:41:27.985Z,10.33
2018-10-03T06:43:56.536Z,9.47
2018-10-03T06:46:25.095Z,9.27
2018-10-03T06:48:54.284Z,10.20
2018-10-03T06:51:23.041Z,10.73
2018-10-03T06:53:51.657Z,8.47
2018-10-03T06:56:21.020Z,8.80
2018-10-03T06:58:49.644Z,8.23
2018-10-03T07:01:18.184Z,9.43
2018-10-03T07:03:46.703Z,7.80
2018-10-03T07:06:15.385Z,8.60
2018-10-03T07:08:44.303Z,7.80
2018-10-03T07:11:13.860Z,9.00
2018-10-03T07:13:42.632Z,8.97
2018-10-03T07:16:11.297Z,9.00
2018-10-03T07:18:40.025Z,9.07
2018-10-03T07:21:09.599Z,8.20
2018-10-03T07:23:38.233Z,9.63
2018-10-03T07:26:07.235Z,11.00
2018-10-03T07:28:35.892Z,10.67
2018-10-03T07:31:05.357Z,14.40
2018-10-03T07:33:33.932Z,8.80
2018-10-03T07:36:02.627Z,8.60
2018-10-03T07:38:31.729Z,10.70
2018-10-03T07:41:03.711Z,7.20
2018-10-03T07:43:33.132Z,7.83
2018-10-03T07:46:02.327Z,6.97
2018-10-03T07:48:32.726Z,7.50
2018-10-03T07:51:01.511Z,7.40
2018-10-03T07:53:30.234Z,7.13
2018-10-03T07:55:59.520Z,8.30
2018-10-03T07:58:29.817Z,7.23
2018-10-03T08:00:58.440Z,6.20
2018-10-03T08:03:27.239Z,6.60
2018-10-03T08:05:55.977Z,6.53
2018-10-03T08:08:24.530Z,6.63
2018-10-03T08:10:53.166Z,7.00
2018-10-03T08:13:21.946Z,5.93
2018-10-03T08:15:50.638Z,7.10
2018-10-03T08:18:19.269Z,6.20
2018-10-03T08:20:47.852Z,5.57
2018-10-03T08:23:16.961Z,4.80
2018-10-03T08:25:45.611Z,5.53
2018-10-03T08:28:14.359Z,4.40
2018-10-03T08:30:42.955Z,5.50
2018-10-03T08:33:11.740Z,5.70
2018-10-03T08:35:40.276Z,5.47
2018-10-03T08:38:08.877Z,5.87
2018-10-03T08:40:37.497Z,5.57
2018-10-03T08:43:06.720Z,5.00
2018-10-03T08:45:35.352Z,6.00
2018-10-03T08:48:04.365Z,4.33
2018-10-03T08:50:32.912Z,9.00
2018-10-03T08:53:01.513Z,4.50
2018-10-03T08:55:30.088Z,5.43
2018-10-03T08:57:58.664Z,5.37
2018-10-03T09:00:27.310Z,5.40
2018-10-03T09:02:56.006Z,4.60
2018-10-03T09:05:24.574Z,4.90
2018-10-03T09:07:53.489Z,4.33
2018-10-03T09:10:22.098Z,5.60
2018-10-03T09:12:52.072Z,5.30
2018-10-03T09:15:20.628Z,4.10
2018-10-03T09:17:49.264Z,4.83
2018-10-03T09:20:17.776Z,4.63
2018-10-03T09:22:46.645Z,4.00
2018-10-03T09:25:15.339Z,5.13
2018-10-03T09:27:44.916Z,4.50
2018-10-03T09:30:13.502Z,4.40
2018-10-03T09:32:42.225Z,3.63
2018-10-03T09:35:10.848Z,5.07
2018-10-03T09:37:39.438Z,4.10
2018-10-03T09:40:08.176Z,4.47
2018-10-03T09:42:36.836Z,5.03
2018-10-03T09:45:05.796Z,4.50
2018-10-03T09:47:34.378Z,3.70
2018-10-03T09:50:03.050Z,4.63
2018-10-03T09:52:31.653Z,3.87
2018-10-03T09:55:00.233Z,4.27
2018-10-03T09:57:28.781Z,3.30
2018-10-03T09:59:57.507Z,3.50
2018-10-03T10:02:26.553Z,3.27
2018-10-03T10:04:55.099Z,3.27
2018-10-03T10:07:23.815Z,3.90
2018-10-03T10:09:52.352Z,3.33
2018-10-03T10:12:20.953Z,4.50
2018-10-03T10:14:49.504Z,3.87
2018-10-03T10:17:18.080Z,3.33
2018-10-03T10:19:46.701Z,4.13
2018-10-03T10:22:16.416Z,4.00
2018-10-03T10:24:44.978Z,3.10
2018-10-03T10:27:13.919Z,2.87
2018-10-03T10:29:42.600Z,3.47
2018-10-03T10:32:11.260Z,3.40
2018-10-03T10:34:39.872Z,4.17
2018-10-03T10:37:08.581Z,3.00
2018-10-03T10:39:37.440Z,3.07
2018-10-03T10:42:06.245Z,2.63
2018-10-03T10:44:34.830Z,4.07
2018-10-03T10:47:03.413Z,3.60
2018-10-03T10:49:32.232Z,3.00
2018-10-03T10:52:01.049Z,3.33
2018-10-03T10:54:29.714Z,2.30
2018-10-03T10:56:58.357Z,2.20
2018-10-03T10:59:27.022Z,3.50
2018-10-03T11:01:55.588Z,2.87
2018-10-03T11:04:24.412Z,3.17
2018-10-03T11:06:53.164Z,4.43
2018-10-03T11:09:21.952Z,3.27
2018-10-03T11:11:50.573Z,4.37
2018-10-03T11:14:19.176Z,3.23
2018-10-03T11:16:47.867Z,3.60
2018-10-03T11:19:16.518Z,3.80
2018-10-03T11:21:45.135Z,3.07
2018-10-03T11:24:13.895Z,3.33
2018-10-03T11:26:43.237Z,3.47
2018-10-03T11:29:11.809Z,3.93
2018-10-03T11:31:40.370Z,3.37
2018-10-03T11:34:09.589Z,5.27
2018-10-03T11:36:39.050Z,4.20
2018-10-03T11:39:09.266Z,3.40
2018-10-03T11:41:37.901Z,3.40
2018-10-03T11:44:06.661Z,3.40
2018-10-03T11:46:35.236Z,4.30
2018-10-03T11:49:03.894Z,2.90
2018-10-03T11:51:32.482Z,3.50
2018-10-03T11:54:01.176Z,3.00
2018-10-03T11:56:29.943Z,2.40
2018-10-03T11:58:58.710Z,3.50
2018-10-03T12:01:27.368Z,4.17
2018-10-03T12:03:55.928Z,3.50
2018-10-03T12:06:24.579Z,2.43
2018-10-03T12:08:53.265Z,3.70
2018-10-03T12:11:22.065Z,3.20
2018-10-03T12:13:50.731Z,2.40
2018-10-03T12:16:19.293Z,3.17
2018-10-03T12:18:47.887Z,5.63
2018-10-03T12:21:16.533Z,3.13
2018-10-03T12:23:45.080Z,2.67
2018-10-03T12:26:13.733Z,3.70
2018-10-03T12:28:42.323Z,2.73
2018-10-03T12:31:10.875Z,2.33
2018-10-03T12:33:40.103Z,3.80
2018-10-03T12:36:08.916Z,2.33
2018-10-03T12:38:37.559Z,3.77
2018-10-03T12:41:06.155Z,2.80
2018-10-03T12:43:34.889Z,3.37
2018-10-03T12:46:03.781Z,4.60
2018-10-03T12:48:32.514Z,3.03
2018-10-03T12:51:01.122Z,1.80
2018-10-03T12:53:30.179Z,3.13
2018-10-03T12:55:58.804Z,3.10
2018-10-03T12:58:27.414Z,2.90
2018-10-03T13:00:56.018Z,2.80
2018-10-03T13:03:24.789Z,2.90
2018-10-03T13:05:53.419Z,3.50
2018-10-03T13:08:22.091Z,2.03
2018-10-03T13:10:50.678Z,2.63
2018-10-03T13:13:19.320Z,2.60
2018-10-03T13:15:48.544Z,2.73
2018-10-03T13:18:17.084Z,2.60
2018-10-03T13:20:45.699Z,3.70
2018-10-03T13:23:14.487Z,2.60
2018-10-03T13:25:43.105Z,2.37
2018-10-03T13:28:11.669Z,2.63
2018-10-03T13:30:40.651Z,3.30
2018-10-03T13:33:09.333Z,2.83
2018-10-03T13:35:38.079Z,2.73
2018-10-03T13:38:06.875Z,3.30
2018-10-03T13:40:35.455Z,2.80
2018-10-03T13:43:04.237Z,2.87
2018-10-03T13:45:32.829Z,3.37
2018-10-03T13:48:01.533Z,2.00
2018-10-03T13:50:30.159Z,2.67
2018-10-03T13:52:58.846Z,3.10
2018-10-03T13:55:27.483Z,2.13
2018-10-03T13:57:56.061Z,2.70
2018-10-03T14:00:24.622Z,2.00
2018-10-03T14:02:53.363Z,2.40
2018-10-03T14:05:22.037Z,3.00
2018-10-03T14:07:51.291Z,3.33
2018-10-03T14:10:19.983Z,2.17
2018-10-03T14:12:48.800Z,2.40
2018-10-03T14:15:17.366Z,2.60
2018-10-03T14:17:46.097Z,2.40
2018-10-03T14:20:14.801Z,2.57
2018-10-03T14:22:43.420Z,3.00
2018-10-03T14:25:11.977Z,3.00
2018-10-03T14:27:40.801Z,2.37
2018-10-03T14:30:10.120Z,2.70
2018-10-03T14:32:38.766Z,2.30
2018-10-03T14:35:07.441Z,2.97
2018-10-03T14:37:36.016Z,2.53
2018-10-03T14:40:04.983Z,2.53
2018-10-03T14:42:33.647Z,3.37
2018-10-03T14:45:02.260Z,2.60
2018-10-03T14:47:30.872Z,2.93
2018-10-03T14:49:59.440Z,3.30
2018-10-03T14:52:28.022Z,2.50
2018-10-03T14:54:56.664Z,2.60
2018-10-03T14:57:25.562Z,2.97
2018-10-03T14:59:54.145Z,2.50
2018-10-03T15:02:22.732Z,2.80
2018-10-03T15:04:51.416Z,2.10
2018-10-03T15:07:20.010Z,2.97
2018-10-03T15:09:49.183Z,2.47
2018-10-03T15:12:17.755Z,2.80
2018-10-03T15:14:46.354Z,2.63
2018-10-03T15:17:14.937Z,3.47
2018-10-03T15:19:44.582Z,3.07
2018-10-03T15:22:13.333Z,2.93
2018-10-03T15:24:41.959Z,3.50
2018-10-03T15:27:10.510Z,2.57
2018-10-03T15:29:39.095Z,3.10
2018-10-03T15:32:07.821Z,3.53
2018-10-03T15:34:36.615Z,3.40
2018-10-03T15:37:06.151Z,2.87
2018-10-03T15:39:35.327Z,2.50
2018-10-03T15:42:04.066Z,3.00
2018-10-03T15:44:33.865Z,3.47
2018-10-03T15:47:02.765Z,3.03
2018-10-03T15:49:31.404Z,2.37
2018-10-03T15:52:00.072Z,3.00
2018-10-03T15:54:28.719Z,3.37
2018-10-03T15:56:57.340Z,3.03
2018-10-03T15:59:25.971Z,3.80
2018-10-03T16:01:54.701Z,3.20
2018-10-03T16:04:23.444Z,3.77
2018-10-03T16:06:52.191Z,3.83
2018-10-03T16:09:20.726Z,3.90
2018-10-03T16:11:49.325Z,4.20
2018-10-03T16:14:17.870Z,2.50
2018-10-03T16:16:46.510Z,3.07
2018-10-03T16:19:15.043Z,2.83
2018-10-03T16:21:44.267Z,2.57
2018-10-03T16:24:13.078Z,3.60
2018-10-03T16:26:41.819Z,3.10
2018-10-03T16:29:10.424Z,4.33
2018-10-03T16:31:39.130Z,2.90
2018-10-03T16:34:08.699Z,4.67
2018-10-03T16:36:37.944Z,3.53
2018-10-03T16:39:08.511Z,2.90
2018-10-03T16:41:37.099Z,2.60
2018-10-03T16:44:05.851Z,4.13
2018-10-03T16:46:34.463Z,2.87
2018-10-03T16:49:03.025Z,3.10
2018-10-03T16:51:31.709Z,3.20
2018-10-03T16:54:00.620Z,3.67
2018-10-03T16:56:29.761Z,3.10
2018-10-03T16:58:58.369Z,3.17
2018-10-03T17:01:27.013Z,3.50
2018-10-03T17:03:55.772Z,3.20
2018-10-03T17:06:24.340Z,2.97
2018-10-03T17:08:53.004Z,3.07
2018-10-03T17:11:21.770Z,3.10
2018-10-03T17:14:39.843Z,3.03
2018-10-03T17:17:09.307Z,2.93
2018-10-03T17:19:38.311Z,2.57
2018-10-03T17:22:07.261Z,3.53
2018-10-03T17:24:37.157Z,3.60
2018-10-03T17:27:05.820Z,2.87
2018-10-03T17:29:34.501Z,2.97
2018-10-03T17:32:03.158Z,3.07
2018-10-03T17:34:31.865Z,4.03
2018-10-03T17:37:00.580Z,5.07
2018-10-03T17:39:29.463Z,3.30
2018-10-03T17:41:58.412Z,2.50
2018-10-03T17:44:27.239Z,3.47
2018-10-03T17:46:57.124Z,3.50
2018-10-03T17:49:25.744Z,3.00
2018-10-03T17:51:54.296Z,3.50
2018-10-03T17:54:22.854Z,3.60
2018-10-03T17:56:52.481Z,3.00
2018-10-03T17:59:21.041Z,2.83
2018-10-03T18:01:52.424Z,3.70
2018-10-03T18:04:21.018Z,3.60
2018-10-03T18:06:49.780Z,4.37
2018-10-03T18:09:18.532Z,3.03
2018-10-03T18:11:47.024Z,3.63
2018-10-03T18:14:16.636Z,4.17
2018-10-03T18:16:45.190Z,4.03
2018-10-03T18:19:13.774Z,3.27
2018-10-03T18:21:42.523Z,3.00
2018-10-03T18:24:11.265Z,3.80
2018-10-03T18:26:39.826Z,4.10
2018-10-03T18:29:08.377Z,5.60
2018-10-03T18:31:37.061Z,3.93
2018-10-03T18:34:05.816Z,2.90
2018-10-03T18:36:35.567Z,3.67
2018-10-03T18:39:05.629Z,3.33
2018-10-03T18:41:34.585Z,4.30
2018-10-03T18:44:03.478Z,3.37
2018-10-03T18:46:32.472Z,4.27
2018-10-03T18:49:01.378Z,7.20
2018-10-03T18:51:30.375Z,4.30
2018-10-03T18:54:00.291Z,4.40
2018-10-03T18:56:29.430Z,3.67
2018-10-03T18:58:58.380Z,3.87
2018-10-03T19:01:27.584Z,5.10
2018-10-03T19:03:56.551Z,4.30
2018-10-03T19:06:25.477Z,4.13
2018-10-03T19:08:54.556Z,4.60
2018-10-03T19:11:23.558Z,2.93
2018-10-03T19:13:52.771Z,4.83
2018-10-03T19:16:21.705Z,4.50
2018-10-03T19:18:50.664Z,3.83
2018-10-03T19:21:19.668Z,4.40
2018-10-03T19:23:49.376Z,4.00
2018-10-03T19:26:18.435Z,3.97
2018-10-03T19:28:47.471Z,3.17
2018-10-03T19:31:16.479Z,5.07
2018-10-03T19:33:45.463Z,4.30
2018-10-03T19:36:14.505Z,3.60
2018-10-03T19:38:44.384Z,4.93
2018-10-03T19:41:13.281Z,4.40
2018-10-03T19:43:42.266Z,3.67
2018-10-03T19:46:11.445Z,3.90
2018-10-03T19:48:40.081Z,3.67
2018-10-03T19:51:08.784Z,3.87
2018-10-03T19:53:37.965Z,4.10
2018-10-03T19:56:06.668Z,4.13
2018-10-03T19:58:35.226Z,4.00
2018-10-03T20:01:03.983Z,4.67
2018-10-03T20:03:32.737Z,4.30
2018-10-03T20:06:01.368Z,4.10
2018-10-03T20:08:29.939Z,3.83
2018-10-03T20:10:58.607Z,4.10
2018-10-03T20:13:27.225Z,4.30
2018-10-03T20:15:55.948Z,5.03
2018-10-03T20:18:24.561Z,4.00
2018-10-03T20:20:53.239Z,4.20
2018-10-03T20:23:22.214Z,3.87
2018-10-03T20:25:51.005Z,4.03
2018-10-03T20:28:19.601Z,4.77
2018-10-03T20:30:48.300Z,5.10
2018-10-03T20:33:16.944Z,4.20
2018-10-03T20:35:45.573Z,3.67
2018-10-03T20:38:14.182Z,4.90
2018-10-03T20:40:42.912Z,4.10
2018-10-03T20:43:11.697Z,4.03
2018-10-03T20:45:40.668Z,3.83
2018-10-03T20:48:09.412Z,4.37
2018-10-03T20:50:38.633Z,4.10
2018-10-03T20:53:07.236Z,3.60
2018-10-03T20:55:35.842Z,5.43
2018-10-03T20:58:04.434Z,4.20
2018-10-03T21:00:33.959Z,4.73
2018-10-03T21:03:02.662Z,5.03
2018-10-03T21:05:31.272Z,4.13
2018-10-03T21:07:59.865Z,4.43
2018-10-03T21:10:29.248Z,3.90
2018-10-03T21:12:57.990Z,3.50
2018-10-03T21:15:26.741Z,4.40
2018-10-03T21:17:55.316Z,3.70
2018-10-03T21:20:24.515Z,4.23
2018-10-03T21:22:53.340Z,4.30
2018-10-03T21:25:21.921Z,4.23
2018-10-03T21:27:50.565Z,3.40
2018-10-03T21:30:19.077Z,3.40
2018-10-03T21:32:47.813Z,4.97
2018-10-03T21:35:16.375Z,4.47
2018-10-03T21:37:44.947Z,3.30
2018-10-03T21:40:13.549Z,5.53
2018-10-03T21:42:42.252Z,3.00
2018-10-03T21:45:11.558Z,4.27
2018-10-03T21:47:40.277Z,5.57
2018-10-03T21:50:08.935Z,4.00
2018-10-03T21:52:37.495Z,3.20
2018-10-03T21:55:06.051Z,4.03
2018-10-03T21:57:34.678Z,4.63
2018-10-03T22:00:04.039Z,4.03
2018-10-03T22:02:32.610Z,3.20
2018-10-03T22:05:01.396Z,4.90
2018-10-03T22:07:29.928Z,3.10
2018-10-03T22:09:58.496Z,6.37
2018-10-03T22:12:27.168Z,4.17
2018-10-03T22:14:55.842Z,4.90
2018-10-03T22:17:25.572Z,4.47
2018-10-03T22:19:55.801Z,3.43
2018-10-03T22:22:24.567Z,3.20
2018-10-03T22:24:53.116Z,3.10
2018-10-03T22:27:21.709Z,3.27
2018-10-03T22:29:51.087Z,3.23
2018-10-03T22:32:19.724Z,4.47
2018-10-03T22:34:48.385Z,3.30
2018-10-03T22:37:16.946Z,3.90
2018-10-03T22:39:45.478Z,3.80
2018-10-03T22:42:14.048Z,4.00
2018-10-03T22:44:42.613Z,3.40
2018-10-03T22:47:11.195Z,3.43
2018-10-03T22:49:39.728Z,4.77
2018-10-03T22:52:08.457Z,4.20
2018-10-03T22:54:37.004Z,3.80
2018-10-03T22:57:05.756Z,3.20
2018-10-03T22:59:34.401Z,4.13
2018-10-03T23:02:03.009Z,4.93
2018-10-03T23:04:31.604Z,3.70
2018-10-03T23:07:00.141Z,4.63
2018-10-03T23:09:28.675Z,3.87
2018-10-03T23:11:57.270Z,4.00
2018-10-03T23:14:25.830Z,4.53
2018-10-03T23:16:54.711Z,3.77
2018-10-03T23:19:23.236Z,4.40
2018-10-03T23:21:51.766Z,4.50
2018-10-03T23:24:20.402Z,3.50
2018-10-03T23:26:48.978Z,4.47
2018-10-03T23:29:17.618Z,3.77
2018-10-03T23:31:46.207Z,4.10
2018-10-03T23:34:14.801Z,4.63
2018-10-03T23:36:44.261Z,4.07
2018-10-03T23:39:13.199Z,5.40
2018-10-03T23:41:42.139Z,4.30
2018-10-03T23:44:11.134Z,3.50
2018-10-03T23:46:40.287Z,4.17
2018-10-03T23:49:08.836Z,3.83
2018-10-03T23:51:37.382Z,4.47
2018-10-03T23:54:06.060Z,3.47
2018-10-03T23:56:34.784Z,4.57
2018-10-03T23:59:03.500Z,3.20
